Cruise inventory

RRS Frederick Russell FR14A/87

Cruise summary report

Cruise Info. 
Ship name (ship code)RRS Frederick Russell (74GG)
Cruise identifierFR14A/87
Cruise period1987-06-16 — 1987-06-20
StatusCompleted
Port of departurePlymouth, United Kingdom
Port of returnTroon, United Kingdom
ObjectivesServicing MAFF Irish Sea current meter moorings and related CTD survey. North Channel caesium sampling.
Chief scientistColin R Griffiths (Scottish Marine Biological Association)
Cruise reportRRS Frederick Russell FR14A/87 cruise report frederick_russell14_87.pdf — access key 'C' (0.37 MB) 
Ocean/sea areas 
GeneralIrish Sea and St. George's Channel
SpecificN. Irish Sea/ North Channel
Track chartsRRS Frederick Russell FR14A/87 cruise track — trk3302a.html
Measurements 
Physical oceanography 
Water bottle stationsQuantity: number of stations = 50
Description: S only 40 bottom. Total covers both lgs of cruise.
CTD stationsQuantity: number of stations = 41
Current metersQuantity: number of stations = 20
Chemical oceanography 
RadioactivityQuantity: number of samples = 23
Description: Cs
Data held at BODC 
Series/Profiles 
41  CTD/STD cast
Vertical spatial coordinates
Salinity of the water column
Temperature of the water column
Vertical spatial coordinates
Salinity of the water column
Temperature of the water column

BODC idDate/TimeLocationDoc.
3497051987-06-19 19:08 54° 17' 59" N  3° 43' 0" W  View metadata report for BODC series reference number 349705
3497171987-06-19 20:06 54° 17' 48" N  3° 43' 18" W  View metadata report for BODC series reference number 349717
3497291987-06-19 21:02 54° 17' 53" N  3° 43' 0" W  View metadata report for BODC series reference number 349729
3497301987-06-19 22:00 54° 17' 59" N  3° 43' 11" W  View metadata report for BODC series reference number 349730
3497421987-06-19 23:00 54° 17' 53" N  3° 43' 0" W  View metadata report for BODC series reference number 349742
3497541987-06-19 23:59 54° 18' 6" N  3° 43' 5" W  View metadata report for BODC series reference number 349754
3497661987-06-20 00:56 54° 17' 53" N  3° 43' 18" W  View metadata report for BODC series reference number 349766
3497781987-06-20 07:52 54° 40' 5" N  5° 29' 35" W  View metadata report for BODC series reference number 349778
3497911987-06-20 08:20 54° 41' 53" N  5° 25' 0" W  View metadata report for BODC series reference number 349791
3498091987-06-20 09:01 54° 43' 36" N  5° 19' 59" W  View metadata report for BODC series reference number 349809
3498101987-06-20 09:52 54° 45' 0" N  5° 15' 6" W  View metadata report for BODC series reference number 349810
3498221987-06-20 10:39 54° 46' 29" N  5° 10' 0" W  View metadata report for BODC series reference number 349822
3498341987-06-20 11:23 54° 48' 11" N  5° 5' 17" W  View metadata report for BODC series reference number 349834
3496501987-06-19 12:07 54° 1' 59" N  3° 34' 5" W  View metadata report for BODC series reference number 349650
3496621987-06-19 15:07 54° 17' 59" N  3° 42' 53" W  View metadata report for BODC series reference number 349662
3496741987-06-19 16:06 54° 18' 6" N  3° 43' 5" W  View metadata report for BODC series reference number 349674
3496861987-06-19 17:07 54° 17' 59" N  3° 43' 5" W  View metadata report for BODC series reference number 349686
3496981987-06-19 18:06 54° 17' 59" N  3° 43' 5" W  View metadata report for BODC series reference number 349698
3494041987-06-17 11:27 53° 36' 17" N  4° 37' 12" W  View metadata report for BODC series reference number 349404
3494161987-06-17 17:39 53° 46' 59" N  4° 39' 36" W  View metadata report for BODC series reference number 349416
3494281987-06-17 20:32 53° 58' 23" N  4° 40' 5" W  View metadata report for BODC series reference number 349428
3494411987-06-18 06:07 54° 19' 0" N  4° 13' 59" W  View metadata report for BODC series reference number 349441
3494531987-06-18 07:49 54° 22' 54" N  4° 3' 29" W  View metadata report for BODC series reference number 349453
3494651987-06-18 09:30 54° 25' 0" N  3° 57' 0" W  View metadata report for BODC series reference number 349465
3494771987-06-18 10:39 54° 27' 17" N  3° 48' 36" W  View metadata report for BODC series reference number 349477
3494891987-06-18 12:18 54° 28' 47" N  3° 40' 48" W  View metadata report for BODC series reference number 349489
3494901987-06-18 16:42 54° 38' 17" N  4° 22' 18" W  View metadata report for BODC series reference number 349490
3495081987-06-18 17:59 54° 34' 54" N  4° 22' 12" W  View metadata report for BODC series reference number 349508
3495211987-06-18 18:47 54° 29' 30" N  4° 23' 17" W  View metadata report for BODC series reference number 349521
3495331987-06-19 00:22 54° 2' 5" N  3° 34' 11" W  View metadata report for BODC series reference number 349533
3495451987-06-19 01:12 54° 1' 48" N  3° 33' 29" W  View metadata report for BODC series reference number 349545
3495571987-06-19 02:07 54° 2' 5" N  3° 34' 18" W  View metadata report for BODC series reference number 349557
3495691987-06-19 03:03 54° 2' 23" N  3° 33' 53" W  View metadata report for BODC series reference number 349569
3495701987-06-19 04:06 54° 1' 59" N  3° 34' 11" W  View metadata report for BODC series reference number 349570
3495821987-06-19 05:06 54° 1' 48" N  3° 33' 47" W  View metadata report for BODC series reference number 349582
3495941987-06-19 06:06 54° 1' 59" N  3° 34' 0" W  View metadata report for BODC series reference number 349594
3496011987-06-19 07:07 54° 2' 12" N  3° 34' 0" W  View metadata report for BODC series reference number 349601
3496131987-06-19 08:07 54° 1' 59" N  3° 34' 18" W  View metadata report for BODC series reference number 349613
3496251987-06-19 09:08 54° 1' 48" N  3° 34' 0" W  View metadata report for BODC series reference number 349625
3496371987-06-19 10:06 54° 1' 59" N  3° 34' 30" W  View metadata report for BODC series reference number 349637
3496491987-06-19 11:06 54° 1' 59" N  3° 34' 11" W  View metadata report for BODC series reference number 349649